sensor_id;sensor_type;location;lat;lon;timestamp;pressure;altitude;pressure_sealevel;temperature;humidity
63399;BME280;49533;-34.520;150.798;2023-08-07T00:02:09;102150.50;;;16.47;51.92
63399;BME280;49533;-34.520;150.798;2023-08-07T00:04:36;102163.69;;;16.45;52.65
63399;BME280;49533;-34.520;150.798;2023-08-07T00:07:03;102141.16;;;16.35;52.39
63399;BME280;49533;-34.520;150.798;2023-08-07T00:09:31;102148.47;;;16.39;52.51
63399;BME280;49533;-34.520;150.798;2023-08-07T00:11:58;102132.34;;;16.24;52.45
63399;BME280;49533;-34.520;150.798;2023-08-07T00:14:25;102161.28;;;16.44;52.49
63399;BME280;49533;-34.520;150.798;2023-08-07T00:16:52;102138.34;;;16.26;52.48
63399;BME280;49533;-34.520;150.798;2023-08-07T00:19:19;102131.44;;;16.28;52.90
63399;BME280;49533;-34.520;150.798;2023-08-07T00:21:46;102153.34;;;16.42;53.51
63399;BME280;49533;-34.520;150.798;2023-08-07T00:24:13;102145.41;;;16.41;53.34
63399;BME280;49533;-34.520;150.798;2023-08-07T00:26:40;102140.03;;;16.36;53.84
63399;BME280;49533;-34.520;150.798;2023-08-07T00:29:07;102116.78;;;16.33;55.25
63399;BME280;49533;-34.520;150.798;2023-08-07T00:31:34;102128.78;;;16.37;55.15
63399;BME280;49533;-34.520;150.798;2023-08-07T00:34:02;102145.81;;;16.48;54.85
63399;BME280;49533;-34.520;150.798;2023-08-07T00:36:30;102112.72;;;16.30;55.30
63399;BME280;49533;-34.520;150.798;2023-08-07T00:39:01;102108.47;;;16.24;55.11
63399;BME280;49533;-34.520;150.798;2023-08-07T00:41:30;102109.88;;;16.36;54.95
63399;BME280;49533;-34.520;150.798;2023-08-07T00:43:57;102108.88;;;16.32;55.17
63399;BME280;49533;-34.520;150.798;2023-08-07T00:46:24;102088.88;;;16.17;55.15
63399;BME280;49533;-34.520;150.798;2023-08-07T00:48:52;102121.94;;;16.48;55.28
63399;BME280;49533;-34.520;150.798;2023-08-07T00:51:20;102128.31;;;16.58;55.04
63399;BME280;49533;-34.520;150.798;2023-08-07T00:53:48;102090.19;;;16.34;55.19
63399;BME280;49533;-34.520;150.798;2023-08-07T00:56:16;102053.66;;;16.11;55.21
63399;BME280;49533;-34.520;150.798;2023-08-07T00:58:44;102088.34;;;16.29;55.27
63399;BME280;49533;-34.520;150.798;2023-08-07T01:01:11;102123.03;;;16.61;55.45
63399;BME280;49533;-34.520;150.798;2023-08-07T01:03:38;102087.22;;;16.44;55.31
63399;BME280;49533;-34.520;150.798;2023-08-07T01:06:06;102117.75;;;16.65;55.21
63399;BME280;49533;-34.520;150.798;2023-08-07T01:08:34;102061.13;;;16.33;55.45
63399;BME280;49533;-34.520;150.798;2023-08-07T01:11:22;102111.75;;;16.63;55.58
63399;BME280;49533;-34.520;150.798;2023-08-07T01:14:10;102116.94;;;16.64;55.50
63399;BME280;49533;-34.520;150.798;2023-08-07T01:16:53;102105.25;;;16.59;55.87
63399;BME280;49533;-34.520;150.798;2023-08-07T01:19:25;102100.47;;;16.64;55.60
63399;BME280;49533;-34.520;150.798;2023-08-07T01:22:16;102049.44;;;16.27;55.42
63399;BME280;49533;-34.520;150.798;2023-08-07T01:24:48;102104.31;;;16.63;56.13
63399;BME280;49533;-34.520;150.798;2023-08-07T01:27:33;102069.44;;;16.41;55.72
63399;BME280;49533;-34.520;150.798;2023-08-07T01:30:26;102087.16;;;16.58;57.24
63399;BME280;49533;-34.520;150.798;2023-08-07T01:33:14;102091.53;;;16.59;56.69
63399;BME280;49533;-34.520;150.798;2023-08-07T01:35:47;102081.69;;;16.58;57.07
63399;BME280;49533;-34.520;150.798;2023-08-07T01:38:16;102050.25;;;16.41;57.26
63399;BME280;49533;-34.520;150.798;2023-08-07T01:40:44;102055.50;;;16.51;56.99
63399;BME280;49533;-34.520;150.798;2023-08-07T01:43:13;102056.47;;;16.56;57.10
63399;BME280;49533;-34.520;150.798;2023-08-07T01:45:40;102085.19;;;16.72;57.37
63399;BME280;49533;-34.520;150.798;2023-08-07T01:48:07;102047.75;;;16.53;56.83
63399;BME280;49533;-34.520;150.798;2023-08-07T01:50:34;101949.50;;;15.97;57.07
63399;BME280;49533;-34.520;150.798;2023-08-07T01:53:02;102023.50;;;16.47;56.89
63399;BME280;49533;-34.520;150.798;2023-08-07T01:55:29;102067.22;;;16.80;56.89
63399;BME280;49533;-34.520;150.798;2023-08-07T01:57:56;102057.84;;;16.81;56.66
63399;BME280;49533;-34.520;150.798;2023-08-07T02:00:23;102057.53;;;16.82;56.60
63399;BME280;49533;-34.520;150.798;2023-08-07T02:02:50;102004.34;;;16.56;56.19
63399;BME280;49533;-34.520;150.798;2023-08-07T02:05:17;102050.28;;;16.86;55.96
63399;BME280;49533;-34.520;150.798;2023-08-07T02:07:44;102028.28;;;16.78;55.95
63399;BME280;49533;-34.520;150.798;2023-08-07T02:10:11;101996.19;;;16.64;56.08
63399;BME280;49533;-34.520;150.798;2023-08-07T02:12:39;101999.09;;;16.68;55.98
63399;BME280;49533;-34.520;150.798;2023-08-07T02:15:07;102025.16;;;16.93;55.82
63399;BME280;49533;-34.520;150.798;2023-08-07T02:17:34;102031.94;;;16.95;55.55
63399;BME280;49533;-34.520;150.798;2023-08-07T02:20:05;102020.63;;;16.97;55.40
63399;BME280;49533;-34.520;150.798;2023-08-07T02:22:32;102018.84;;;16.92;55.50
63399;BME280;49533;-34.520;150.798;2023-08-07T02:24:59;101960.38;;;16.69;55.26
63399;BME280;49533;-34.520;150.798;2023-08-07T02:27:27;101965.88;;;16.69;55.31
63399;BME280;49533;-34.520;150.798;2023-08-07T02:29:54;101980.84;;;16.86;55.07
63399;BME280;49533;-34.520;150.798;2023-08-07T02:32:21;101959.94;;;16.76;54.83
63399;BME280;49533;-34.520;150.798;2023-08-07T02:34:48;101967.94;;;16.86;54.94
63399;BME280;49533;-34.520;150.798;2023-08-07T02:37:15;101957.81;;;16.73;54.80
63399;BME280;49533;-34.520;150.798;2023-08-07T02:39:43;102003.28;;;17.10;54.76
63399;BME280;49533;-34.520;150.798;2023-08-07T02:42:10;101961.34;;;16.87;54.66
63399;BME280;49533;-34.520;150.798;2023-08-07T02:44:37;101878.03;;;16.38;54.65
63399;BME280;49533;-34.520;150.798;2023-08-07T02:47:04;101951.16;;;16.88;54.74
63399;BME280;49533;-34.520;150.798;2023-08-07T02:49:31;101946.59;;;16.83;54.45
63399;BME280;49533;-34.520;150.798;2023-08-07T02:51:59;101961.19;;;16.92;54.64
63399;BME280;49533;-34.520;150.798;2023-08-07T02:54:26;101900.59;;;16.58;54.30
63399;BME280;49533;-34.520;150.798;2023-08-07T02:56:53;101984.91;;;17.20;54.56
63399;BME280;49533;-34.520;150.798;2023-08-07T02:59:20;101986.84;;;17.19;54.56
63399;BME280;49533;-34.520;150.798;2023-08-07T03:01:47;101957.84;;;17.04;54.49
63399;BME280;49533;-34.520;150.798;2023-08-07T03:04:14;101960.78;;;17.08;54.25
63399;BME280;49533;-34.520;150.798;2023-08-07T03:06:41;101871.47;;;16.48;54.31
63399;BME280;49533;-34.520;150.798;2023-08-07T03:09:08;101981.50;;;17.23;54.67
63399;BME280;49533;-34.520;150.798;2023-08-07T03:11:35;101977.16;;;17.22;54.61
63399;BME280;49533;-34.520;150.798;2023-08-07T03:14:02;101931.66;;;16.98;54.74
63399;BME280;49533;-34.520;150.798;2023-08-07T03:16:30;101901.00;;;16.73;54.34
63399;BME280;49533;-34.520;150.798;2023-08-07T03:18:57;101977.97;;;17.22;54.68
63399;BME280;49533;-34.520;150.798;2023-08-07T03:21:25;101932.78;;;16.97;54.57
63399;BME280;49533;-34.520;150.798;2023-08-07T03:23:52;101978.97;;;17.26;54.62
63399;BME280;49533;-34.520;150.798;2023-08-07T03:26:19;101966.31;;;17.25;54.20
63399;BME280;49533;-34.520;150.798;2023-08-07T03:28:46;101970.22;;;17.24;54.22
63399;BME280;49533;-34.520;150.798;2023-08-07T03:31:15;101945.13;;;17.08;54.30
63399;BME280;49533;-34.520;150.798;2023-08-07T03:33:42;101940.72;;;17.07;54.36
63399;BME280;49533;-34.520;150.798;2023-08-07T03:36:09;101972.66;;;17.26;54.60
63399;BME280;49533;-34.520;150.798;2023-08-07T03:38:36;101950.09;;;17.06;54.49
63399;BME280;49533;-34.520;150.798;2023-08-07T03:41:04;101943.47;;;17.07;55.00
63399;BME280;49533;-34.520;150.798;2023-08-07T03:43:31;101968.59;;;17.23;55.04
63399;BME280;49533;-34.520;150.798;2023-08-07T03:46:01;101964.88;;;17.19;55.16
63399;BME280;49533;-34.520;150.798;2023-08-07T03:48:29;101929.06;;;16.93;55.15
63399;BME280;49533;-34.520;150.798;2023-08-07T03:51:04;101966.13;;;17.13;55.30
63399;BME280;49533;-34.520;150.798;2023-08-07T03:53:32;101954.16;;;17.09;55.22
63399;BME280;49533;-34.520;150.798;2023-08-07T03:55:59;101925.66;;;16.87;55.20
63399;BME280;49533;-34.520;150.798;2023-08-07T03:58:26;101942.50;;;17.03;55.37
63399;BME280;49533;-34.520;150.798;2023-08-07T04:00:53;101926.59;;;16.83;55.50
63399;BME280;49533;-34.520;150.798;2023-08-07T04:03:20;101929.69;;;16.90;55.72
63399;BME280;49533;-34.520;150.798;2023-08-07T04:05:52;101955.91;;;17.05;55.75
63399;BME280;49533;-34.520;150.798;2023-08-07T04:08:20;101924.38;;;16.93;55.52
63399;BME280;49533;-34.520;150.798;2023-08-07T04:11:00;101952.06;;;17.06;55.49
63399;BME280;49533;-34.520;150.798;2023-08-07T04:13:28;101949.44;;;17.01;55.66
63399;BME280;49533;-34.520;150.798;2023-08-07T04:15:56;101948.44;;;16.97;55.79
63399;BME280;49533;-34.520;150.798;2023-08-07T04:18:24;101906.38;;;16.79;55.62
63399;BME280;49533;-34.520;150.798;2023-08-07T04:20:53;101948.50;;;17.05;55.75
63399;BME280;49533;-34.520;150.798;2023-08-07T04:23:23;101955.09;;;17.04;55.68
63399;BME280;49533;-34.520;150.798;2023-08-07T04:25:51;101933.25;;;16.90;55.52
63399;BME280;49533;-34.520;150.798;2023-08-07T04:28:19;101920.28;;;16.82;55.53
63399;BME280;49533;-34.520;150.798;2023-08-07T04:30:49;101918.66;;;16.81;55.10
63399;BME280;49533;-34.520;150.798;2023-08-07T04:33:18;101932.47;;;16.99;54.70
63399;BME280;49533;-34.520;150.798;2023-08-07T04:35:45;101916.81;;;16.77;54.88
63399;BME280;49533;-34.520;150.798;2023-08-07T04:38:15;101955.28;;;17.08;55.15
63399;BME280;49533;-34.520;150.798;2023-08-07T04:40:45;101943.44;;;16.99;55.00
63399;BME280;49533;-34.520;150.798;2023-08-07T04:43:13;101949.66;;;17.13;54.89
63399;BME280;49533;-34.520;150.798;2023-08-07T04:45:41;101941.88;;;17.06;54.67
63399;BME280;49533;-34.520;150.798;2023-08-07T04:48:08;101924.53;;;16.97;54.88
63399;BME280;49533;-34.520;150.798;2023-08-07T04:50:36;101935.56;;;17.06;54.50
63399;BME280;49533;-34.520;150.798;2023-08-07T04:53:05;101964.38;;;17.17;54.54
63399;BME280;49533;-34.520;150.798;2023-08-07T04:55:32;101968.75;;;17.18;54.52
63399;BME280;49533;-34.520;150.798;2023-08-07T04:57:59;101940.25;;;17.05;54.48
63399;BME280;49533;-34.520;150.798;2023-08-07T05:00:27;101963.72;;;17.20;54.46
63399;BME280;49533;-34.520;150.798;2023-08-07T05:02:55;101968.41;;;17.20;54.60
63399;BME280;49533;-34.520;150.798;2023-08-07T05:05:22;101929.09;;;17.02;54.45
63399;BME280;49533;-34.520;150.798;2023-08-07T05:07:49;101963.13;;;17.23;54.27
63399;BME280;49533;-34.520;150.798;2023-08-07T05:10:16;101967.16;;;17.26;54.42
63399;BME280;49533;-34.520;150.798;2023-08-07T05:12:43;101902.03;;;16.86;54.37
63399;BME280;49533;-34.520;150.798;2023-08-07T05:15:11;101952.75;;;17.20;54.30
63399;BME280;49533;-34.520;150.798;2023-08-07T05:17:38;101959.88;;;17.30;54.09
63399;BME280;49533;-34.520;150.798;2023-08-07T05:20:05;101956.66;;;17.28;54.13
63399;BME280;49533;-34.520;150.798;2023-08-07T05:22:33;101944.84;;;17.19;54.37
63399;BME280;49533;-34.520;150.798;2023-08-07T05:25:01;101953.28;;;17.31;54.15
63399;BME280;49533;-34.520;150.798;2023-08-07T05:27:28;101953.28;;;17.31;54.24
63399;BME280;49533;-34.520;150.798;2023-08-07T05:29:55;101958.44;;;17.32;53.97
63399;BME280;49533;-34.520;150.798;2023-08-07T05:32:22;101947.47;;;17.32;54.07
63399;BME280;49533;-34.520;150.798;2023-08-07T05:34:49;101923.50;;;17.15;54.11
63399;BME280;49533;-34.520;150.798;2023-08-07T05:37:16;101924.31;;;17.16;53.87
63399;BME280;49533;-34.520;150.798;2023-08-07T05:39:44;101969.63;;;17.36;53.97
63399;BME280;49533;-34.520;150.798;2023-08-07T05:42:11;101969.13;;;17.34;53.93
63399;BME280;49533;-34.520;150.798;2023-08-07T05:44:38;101964.72;;;17.24;54.12
63399;BME280;49533;-34.520;150.798;2023-08-07T05:47:06;101935.44;;;17.11;53.88
63399;BME280;49533;-34.520;150.798;2023-08-07T05:49:33;101973.19;;;17.36;53.83
63399;BME280;49533;-34.520;150.798;2023-08-07T05:52:00;101933.19;;;17.13;53.91
63399;BME280;49533;-34.520;150.798;2023-08-07T05:54:28;101975.44;;;17.34;53.90
63399;BME280;49533;-34.520;150.798;2023-08-07T05:56:55;101969.94;;;17.34;53.97
63399;BME280;49533;-34.520;150.798;2023-08-07T05:59:22;101887.59;;;16.72;54.29
63399;BME280;49533;-34.520;150.798;2023-08-07T06:01:49;101972.16;;;17.24;54.71
63399;BME280;49533;-34.520;150.798;2023-08-07T06:04:17;101976.50;;;17.25;54.41
63399;BME280;49533;-34.520;150.798;2023-08-07T06:06:44;101975.22;;;17.22;54.24
63399;BME280;49533;-34.520;150.798;2023-08-07T06:09:12;101938.63;;;17.04;54.16
63399;BME280;49533;-34.520;150.798;2023-08-07T06:11:41;101936.50;;;17.01;54.32
63399;BME280;49533;-34.520;150.798;2023-08-07T06:14:09;101969.44;;;17.32;53.99
63399;BME280;49533;-34.520;150.798;2023-08-07T06:16:36;101917.59;;;17.00;53.88
63399;BME280;49533;-34.520;150.798;2023-08-07T06:19:03;101977.22;;;17.39;54.22
63399;BME280;49533;-34.520;150.798;2023-08-07T06:21:30;101976.22;;;17.35;53.87
63399;BME280;49533;-34.520;150.798;2023-08-07T06:23:57;101981.41;;;17.36;53.91
63399;BME280;49533;-34.520;150.798;2023-08-07T06:26:25;101860.56;;;16.57;53.90
63399;BME280;49533;-34.520;150.798;2023-08-07T06:28:52;101955.97;;;17.22;53.87
63399;BME280;49533;-34.520;150.798;2023-08-07T06:31:19;101985.78;;;17.37;53.81
63399;BME280;49533;-34.520;150.798;2023-08-07T06:33:46;101987.72;;;17.37;53.68
63399;BME280;49533;-34.520;150.798;2023-08-07T06:36:13;101942.22;;;17.13;53.69
63399;BME280;49533;-34.520;150.798;2023-08-07T06:38:40;102000.50;;;17.42;53.45
63399;BME280;49533;-34.520;150.798;2023-08-07T06:41:07;101985.13;;;17.41;53.84
63399;BME280;49533;-34.520;150.798;2023-08-07T06:43:34;101995.66;;;17.38;53.74
63399;BME280;49533;-34.520;150.798;2023-08-07T06:46:02;102000.81;;;17.40;53.47
63399;BME280;49533;-34.520;150.798;2023-08-07T06:48:29;101962.13;;;17.19;53.43
63399;BME280;49533;-34.520;150.798;2023-08-07T06:50:56;101984.47;;;17.35;53.52
63399;BME280;49533;-34.520;150.798;2023-08-07T06:53:23;102002.44;;;17.41;53.31
63399;BME280;49533;-34.520;150.798;2023-08-07T06:55:50;102001.94;;;17.39;53.57
63399;BME280;49533;-34.520;150.798;2023-08-07T06:58:18;101996.41;;;17.30;53.34
63399;BME280;49533;-34.520;150.798;2023-08-07T07:00:45;102009.84;;;17.41;53.47
63399;BME280;49533;-34.520;150.798;2023-08-07T07:03:13;101983.78;;;17.21;53.17
63399;BME280;49533;-34.520;150.798;2023-08-07T07:05:40;101992.56;;;17.31;52.98
63399;BME280;49533;-34.520;150.798;2023-08-07T07:08:09;101982.81;;;17.25;53.22
63399;BME280;49533;-34.520;150.798;2023-08-07T07:10:36;102006.50;;;17.44;53.32
63399;BME280;49533;-34.520;150.798;2023-08-07T07:13:03;102014.25;;;17.42;53.21
63399;BME280;49533;-34.520;150.798;2023-08-07T07:15:30;102010.69;;;17.41;53.25
63399;BME280;49533;-34.520;150.798;2023-08-07T07:17:57;102007.13;;;17.41;53.42
63399;BME280;49533;-34.520;150.798;2023-08-07T07:20:24;101992.06;;;17.29;53.02
63399;BME280;49533;-34.520;150.798;2023-08-07T07:22:53;102006.31;;;17.40;53.34
63399;BME280;49533;-34.520;150.798;2023-08-07T07:25:20;101953.78;;;17.02;53.03
63399;BME280;49533;-34.520;150.798;2023-08-07T07:27:47;101976.16;;;17.17;53.00
63399;BME280;49533;-34.520;150.798;2023-08-07T07:30:15;101982.66;;;17.22;53.00
63399;BME280;49533;-34.520;150.798;2023-08-07T07:32:42;101971.78;;;17.08;53.03
63399;BME280;49533;-34.520;150.798;2023-08-07T07:35:11;101994.63;;;17.26;52.92
63399;BME280;49533;-34.520;150.798;2023-08-07T07:37:47;101980.81;;;17.08;52.89
63399;BME280;49533;-34.520;150.798;2023-08-07T07:40:14;102013.53;;;17.27;52.87
63399;BME280;49533;-34.520;150.798;2023-08-07T07:42:41;102024.25;;;17.37;52.74
63399;BME280;49533;-34.520;150.798;2023-08-07T07:45:08;101997.78;;;17.10;53.10
63399;BME280;49533;-34.520;150.798;2023-08-07T07:47:36;102035.69;;;17.31;53.09
63399;BME280;49533;-34.520;150.798;2023-08-07T07:50:07;101996.78;;;17.06;53.15
63399;BME280;49533;-34.520;150.798;2023-08-07T07:52:35;102025.16;;;17.24;53.05
63399;BME280;49533;-34.520;150.798;2023-08-07T07:55:02;102024.16;;;17.20;53.23
63399;BME280;49533;-34.520;150.798;2023-08-07T07:57:29;102039.56;;;17.30;53.06
63399;BME280;49533;-34.520;150.798;2023-08-07T07:59:56;102037.13;;;17.28;52.98
63399;BME280;49533;-34.520;150.798;2023-08-07T08:02:24;102011.19;;;17.12;52.95
63399;BME280;49533;-34.520;150.798;2023-08-07T08:04:51;102012.97;;;17.08;53.06
63399;BME280;49533;-34.520;150.798;2023-08-07T08:07:18;102015.72;;;17.08;52.85
63399;BME280;49533;-34.520;150.798;2023-08-07T08:09:46;102055.06;;;17.26;52.94
63399;BME280;49533;-34.520;150.798;2023-08-07T08:12:13;102051.97;;;17.27;52.73
63399;BME280;49533;-34.520;150.798;2023-08-07T08:14:40;102027.16;;;17.10;53.11
63399;BME280;49533;-34.520;150.798;2023-08-07T08:17:07;102046.31;;;17.24;52.58
63399;BME280;49533;-34.520;150.798;2023-08-07T08:19:35;102057.69;;;17.31;52.67
63399;BME280;49533;-34.520;150.798;2023-08-07T08:22:02;102063.97;;;17.31;52.57
63399;BME280;49533;-34.520;150.798;2023-08-07T08:24:29;102043.84;;;17.13;52.65
63399;BME280;49533;-34.520;150.798;2023-08-07T08:26:58;102050.78;;;17.11;52.76
63399;BME280;49533;-34.520;150.798;2023-08-07T08:29:25;102077.84;;;17.26;52.83
63399;BME280;49533;-34.520;150.798;2023-08-07T08:31:54;102018.66;;;16.89;52.51
63399;BME280;49533;-34.520;150.798;2023-08-07T08:34:23;102050.28;;;17.09;52.88
63399;BME280;49533;-34.520;150.798;2023-08-07T08:36:50;102057.38;;;17.10;52.55
63399;BME280;49533;-34.520;150.798;2023-08-07T08:39:17;102049.59;;;17.03;52.89
63399;BME280;49533;-34.520;150.798;2023-08-07T08:41:46;102085.41;;;17.21;52.97
63399;BME280;49533;-34.520;150.798;2023-08-07T08:44:14;102033.69;;;16.91;52.82
63399;BME280;49533;-34.520;150.798;2023-08-07T08:46:43;101982.59;;;16.59;53.05
63399;BME280;49533;-34.520;150.798;2023-08-07T08:49:15;102060.75;;;17.07;53.06
63399;BME280;49533;-34.520;150.798;2023-08-07T08:51:47;102077.63;;;17.23;52.82
63399;BME280;49533;-34.520;150.798;2023-08-07T08:54:14;102080.09;;;17.24;52.91
63399;BME280;49533;-34.520;150.798;2023-08-07T08:56:42;102088.84;;;17.26;52.79
63399;BME280;49533;-34.520;150.798;2023-08-07T08:59:10;101996.38;;;16.68;53.17
63399;BME280;49533;-34.520;150.798;2023-08-07T09:01:37;102084.94;;;17.27;52.66
63399;BME280;49533;-34.520;150.798;2023-08-07T09:04:05;102081.53;;;17.22;52.73
63399;BME280;49533;-34.520;150.798;2023-08-07T09:06:33;102058.00;;;17.07;52.84
63399;BME280;49533;-34.520;150.798;2023-08-07T09:09:00;102055.47;;;17.10;52.65
63399;BME280;49533;-34.520;150.798;2023-08-07T09:11:29;102090.94;;;17.29;52.90
63399;BME280;49533;-34.520;150.798;2023-08-07T09:13:58;102058.22;;;17.10;52.87
63399;BME280;49533;-34.520;150.798;2023-08-07T09:16:26;102042.00;;;17.00;52.80
63399;BME280;49533;-34.520;150.798;2023-08-07T09:18:54;102062.88;;;17.10;52.99
63399;BME280;49533;-34.520;150.798;2023-08-07T09:21:22;102048.78;;;17.03;52.72
63399;BME280;49533;-34.520;150.798;2023-08-07T09:23:49;102061.75;;;17.11;52.73
63399;BME280;49533;-34.520;150.798;2023-08-07T09:26:22;102073.13;;;17.18;52.63
63399;BME280;49533;-34.520;150.798;2023-08-07T09:28:52;102076.34;;;17.20;52.86
63399;BME280;49533;-34.520;150.798;2023-08-07T09:31:21;102082.34;;;17.22;52.58
63399;BME280;49533;-34.520;150.798;2023-08-07T09:33:49;102050.91;;;17.06;52.84
63399;BME280;49533;-34.520;150.798;2023-08-07T09:36:16;102090.44;;;17.27;52.70
63399;BME280;49533;-34.520;150.798;2023-08-07T09:38:49;102032.56;;;16.92;52.32
63399;BME280;49533;-34.520;150.798;2023-08-07T09:41:19;102078.75;;;17.13;52.59
63399;BME280;49533;-34.520;150.798;2023-08-07T09:43:46;102094.69;;;17.33;52.58
63399;BME280;49533;-34.520;150.798;2023-08-07T09:46:13;101973.06;;;16.57;52.56
63399;BME280;49533;-34.520;150.798;2023-08-07T09:48:42;102096.94;;;17.31;52.37
63399;BME280;49533;-34.520;150.798;2023-08-07T09:51:09;101850.41;;;15.53;52.50
63399;BME280;49533;-34.520;150.798;2023-08-07T09:53:37;101996.19;;;16.64;52.27
63399;BME280;49533;-34.520;150.798;2023-08-07T09:56:04;101854.38;;;15.75;52.40
63399;BME280;49533;-34.520;150.798;2023-08-07T09:58:33;101929.31;;;16.15;52.30
63399;BME280;49533;-34.520;150.798;2023-08-07T10:01:02;102047.91;;;16.93;52.50
63399;BME280;49533;-34.520;150.798;2023-08-07T10:03:31;102093.19;;;17.27;52.62
63399;BME280;49533;-34.520;150.798;2023-08-07T10:05:59;101966.66;;;16.25;52.40
63399;BME280;49533;-34.520;150.798;2023-08-07T10:08:26;102056.78;;;16.90;52.35
63399;BME280;49533;-34.520;150.798;2023-08-07T10:10:54;102026.72;;;16.71;52.42
63399;BME280;49533;-34.520;150.798;2023-08-07T10:13:21;102119.47;;;17.20;52.58
63399;BME280;49533;-34.520;150.798;2023-08-07T10:15:49;102074.06;;;17.13;52.27
63399;BME280;49533;-34.520;150.798;2023-08-07T10:18:17;102104.69;;;17.29;52.44
63399;BME280;49533;-34.520;150.798;2023-08-07T10:20:44;102040.59;;;16.89;52.29
63399;BME280;49533;-34.520;150.798;2023-08-07T10:23:12;102109.38;;;17.29;52.31
63399;BME280;49533;-34.520;150.798;2023-08-07T10:25:43;102100.31;;;17.28;52.22
63399;BME280;49533;-34.520;150.798;2023-08-07T10:28:15;102106.91;;;17.27;52.28
63399;BME280;49533;-34.520;150.798;2023-08-07T10:30:43;102101.44;;;17.27;52.38
63399;BME280;49533;-34.520;150.798;2023-08-07T10:33:12;102051.66;;;16.98;51.99
63399;BME280;49533;-34.520;150.798;2023-08-07T10:35:45;102075.00;;;17.09;52.59
63399;BME280;49533;-34.520;150.798;2023-08-07T10:38:14;102085.22;;;17.17;52.11
63399;BME280;49533;-34.520;150.798;2023-08-07T10:40:59;102093.81;;;17.24;52.08
63399;BME280;49533;-34.520;150.798;2023-08-07T10:43:27;102082.78;;;17.15;51.86
63399;BME280;49533;-34.520;150.798;2023-08-07T10:46:03;102095.44;;;17.25;52.19
63399;BME280;49533;-34.520;150.798;2023-08-07T10:48:39;102079.34;;;17.10;52.01
63399;BME280;49533;-34.520;150.798;2023-08-07T10:51:06;101995.47;;;16.59;52.02
63399;BME280;49533;-34.520;150.798;2023-08-07T10:53:36;102077.84;;;17.04;52.08
63399;BME280;49533;-34.520;150.798;2023-08-07T10:56:10;102026.34;;;16.78;52.17
63399;BME280;49533;-34.520;150.798;2023-08-07T10:58:38;102098.50;;;17.24;52.02
63399;BME280;49533;-34.520;150.798;2023-08-07T11:01:21;102103.50;;;17.22;52.15
63399;BME280;49533;-34.520;150.798;2023-08-07T11:03:56;102101.88;;;17.21;51.91
63399;BME280;49533;-34.520;150.798;2023-08-07T11:06:26;102093.56;;;17.12;51.87
63399;BME280;49533;-34.520;150.798;2023-08-07T11:08:54;102110.13;;;17.21;51.99
63399;BME280;49533;-34.520;150.798;2023-08-07T11:11:21;102106.53;;;17.20;51.88
63399;BME280;49533;-34.520;150.798;2023-08-07T11:13:49;102076.25;;;17.03;51.89
63399;BME280;49533;-34.520;150.798;2023-08-07T11:16:17;102099.06;;;17.12;52.27
63399;BME280;49533;-34.520;150.798;2023-08-07T11:18:48;102090.44;;;17.05;52.04
63399;BME280;49533;-34.520;150.798;2023-08-07T11:21:15;102105.56;;;17.16;52.07
63399;BME280;49533;-34.520;150.798;2023-08-07T11:23:42;102069.06;;;16.93;52.13
63399;BME280;49533;-34.520;150.798;2023-08-07T11:26:11;102048.78;;;16.80;52.04
63399;BME280;49533;-34.520;150.798;2023-08-07T11:28:38;102084.34;;;17.08;52.44
63399;BME280;49533;-34.520;150.798;2023-08-07T11:31:05;102085.97;;;17.09;51.94
63399;BME280;49533;-34.520;150.798;2023-08-07T11:33:33;102037.91;;;16.75;51.93
63399;BME280;49533;-34.520;150.798;2023-08-07T11:36:00;102058.53;;;16.86;51.89
63399;BME280;49533;-34.520;150.798;2023-08-07T11:38:33;102042.59;;;16.74;51.98
63399;BME280;49533;-34.520;150.798;2023-08-07T11:41:02;102093.81;;;17.02;51.98
63399;BME280;49533;-34.520;150.798;2023-08-07T11:43:31;102094.38;;;17.12;52.14
63399;BME280;49533;-34.520;150.798;2023-08-07T11:46:01;102086.72;;;17.01;51.99
63399;BME280;49533;-34.520;150.798;2023-08-07T11:48:30;102083.19;;;17.00;51.92
63399;BME280;49533;-34.520;150.798;2023-08-07T11:50:58;102063.19;;;16.86;52.08
63399;BME280;49533;-34.520;150.798;2023-08-07T11:53:29;102072.63;;;16.93;51.97
63399;BME280;49533;-34.520;150.798;2023-08-07T11:56:00;102063.03;;;16.82;51.98
63399;BME280;49533;-34.520;150.798;2023-08-07T11:58:33;101993.72;;;16.40;51.92
63399;BME280;49533;-34.520;150.798;2023-08-07T12:01:05;102068.25;;;16.92;51.97
63399;BME280;49533;-34.520;150.798;2023-08-07T12:03:35;102044.03;;;16.72;51.98
63399;BME280;49533;-34.520;150.798;2023-08-07T12:06:06;102078.41;;;16.92;52.11
63399;BME280;49533;-34.520;150.798;2023-08-07T12:08:39;102061.72;;;16.80;51.99
63399;BME280;49533;-34.520;150.798;2023-08-07T12:11:08;102103.06;;;17.06;52.12
63399;BME280;49533;-34.520;150.798;2023-08-07T12:13:39;102079.56;;;16.91;51.88
63399;BME280;49533;-34.520;150.798;2023-08-07T12:16:07;102067.38;;;16.83;51.95
63399;BME280;49533;-34.520;150.798;2023-08-07T12:18:35;102094.22;;;17.09;51.89
63399;BME280;49533;-34.520;150.798;2023-08-07T12:21:07;102097.75;;;17.09;51.75
63399;BME280;49533;-34.520;150.798;2023-08-07T12:23:35;102061.59;;;16.85;51.75
63399;BME280;49533;-34.520;150.798;2023-08-07T12:26:03;102058.47;;;16.78;51.89
63399;BME280;49533;-34.520;150.798;2023-08-07T12:28:34;102088.03;;;17.03;52.01